Latest Weather Observations for Kurnell

IDN60801

Issued at 6:35 pm EST Wednesday 30 July 2014 (issued every 30 minutes, with the page automatically refreshed every 10 minutes)

About weather observations | Map of weather stations | Latest weather observations for NSW | Other Formats
Station Details ID: 066043 Name: KURNELL AWS Lat: -34.00 Lon: 151.21 Height: 4.0 m
Data from the previous 72 hours. | See also: Recent months for locations in New South Wales
Date/Time
EST
Temp
°C
App
Temp
°C
Dew
Point
Rel
Hum
%
Delta-T
°C
Wind Press
QNH
hPa
Press
MSL
hPa
Rain
since 9 am
mm
Dir
 
Spd
km/h
Gust
km/h
Spd
kts
Gust
kts
30/06:30pm - - - - - WNW 17 22 9 12 - - -
30/06:00pm - - - - - WNW 20 24 11 13 - - -
30/05:30pm - - - - - NW 24 28 13 15 - - -
30/05:00pm - - - - - NW 28 33 15 18 - - -
30/04:30pm - - - - - WNW 26 30 14 16 - - -
30/04:00pm - - - - - NW 26 30 14 16 - - -
30/03:30pm - - - - - WNW 22 26 12 14 - - -
30/03:00pm - - - - - WNW 22 28 12 15 - - -
30/02:30pm - - - - - WNW 26 32 14 17 - - -
30/02:00pm - - - - - NW 17 19 9 10 - - -
30/01:30pm - - - - - W 19 20 10 11 - - -
30/01:00pm - - - - - WNW 19 26 10 14 - - -
30/12:30pm - - - - - WNW 20 26 11 14 - - -
30/12:00pm - - - - - WNW 20 24 11 13 - - -
30/11:30am - - - - - W 22 26 12 14 - - -
30/11:00am - - - - - WNW 19 22 10 12 - - -
30/10:30am - - - - - SW 4 9 2 5 - - -
30/10:00am - - - - - ESE 7 9 4 5 - - -
30/09:30am - - - - - E 11 13 6 7 - - -
30/09:00am - - - - - S 7 9 4 5 - - -
30/08:30am - - - - - NW 13 13 7 7 - - -
30/08:00am - - - - - NNW 24 28 13 15 - - -
30/07:30am - - - - - NNW 15 19 8 10 - - -
30/07:00am - - - - - NW 15 19 8 10 - - -
30/06:30am - - - - - NW 24 32 13 17 - - -
30/06:00am - - - - - N 11 15 6 8 - - -
30/05:30am - - - - - NNE 9 13 5 7 - - -
30/05:00am - - - - - NE 17 20 9 11 - - -
30/04:30am - - - - - ENE 15 19 8 10 - - -
30/04:00am - - - - - N 15 19 8 10 - - -
30/03:30am - - - - - W 15 19 8 10 - - -
30/03:00am - - - - - NW 20 24 11 13 - - -
30/02:30am - - - - - NNW 17 19 9 10 - - -
30/02:00am - - - - - NW 13 15 7 8 - - -
30/01:30am - - - - - NW 11 11 6 6 - - -
30/01:00am - - - - - NNW 9 11 5 6 - - -
30/12:30am - - - - - N 11 17 6 9 - - -
30/12:00am - - - - - N 17 20 9 11 - - -
 
Date/Time
EST
Temp
°C
App
Temp
°C
Dew
Point
Rel
Hum
%
Delta-T
°C
Wind Press
QNH
hPa
Press
MSL
hPa
Rain
since 9 am
mm
Dir
 
Spd
km/h
Gust
km/h
Spd
kts
Gust
kts
29/11:30pm - - - - - N 22 28 12 15 - - -
29/11:00pm - - - - - N 26 32 14 17 - - -
29/10:30pm - - - - - N 26 32 14 17 - - -
29/10:00pm - - - - - N 26 32 14 17 - - -
29/09:30pm - - - - - N 28 32 15 17 - - -
29/09:00pm - - - - - N 24 32 13 17 - - -
29/08:30pm - - - - - NNW 22 30 12 16 - - -
29/08:00pm - - - - - NNW 28 33 15 18 - - -
29/07:30pm - - - - - NNW 26 32 14 17 - - -
29/07:00pm - - - - - NNW 28 35 15 19 - - -
29/06:30pm - - - - - NW 30 35 16 19 - - -
29/06:00pm - - - - - NNW 28 33 15 18 - - -
29/05:30pm - - - - - N 17 22 9 12 - - -
29/05:00pm - - - - - NW 30 35 16 19 - - -
29/04:30pm - - - - - NW 32 37 17 20 - - -
29/04:00pm - - - - - NW 30 33 16 18 - - -
29/03:30pm - - - - - NW 32 33 17 18 - - -
29/03:00pm - - - - - N 30 35 16 19 - - -
29/02:30pm - - - - - N 28 35 15 19 - - -
29/02:00pm - - - - - N 32 37 17 20 - - -
29/01:30pm - - - - - N 28 33 15 18 - - -
29/01:00pm - - - - - N 22 30 12 16 - - -
29/12:30pm - - - - - N 28 39 15 21 - - -
29/12:00pm - - - - - N 24 30 13 16 - - -
29/11:30am - - - - - N 26 32 14 17 - - -
29/11:00am - - - - - N 28 35 15 19 - - -
29/10:30am - - - - - N 28 33 15 18 - - -
29/10:00am - - - - - NNW 35 41 19 22 - - -
29/09:30am - - - - - NNW 32 39 17 21 - - -
29/09:00am - - - - - N 22 28 12 15 - - -
29/08:30am - - - - - N 11 15 6 8 - - -
29/08:00am - - - - - N 11 13 6 7 - - -
29/07:30am - - - - - N 17 20 9 11 - - -
29/07:00am - - - - - NNW 20 26 11 14 - - -
29/06:30am - - - - - NW 26 32 14 17 - - -
29/06:00am - - - - - NW 22 26 12 14 - - -
29/05:30am - - - - - NW 20 28 11 15 - - -
29/05:00am - - - - - NW 30 33 16 18 - - -
29/04:30am - - - - - NW 24 28 13 15 - - -
29/04:00am - - - - - NNW 26 30 14 16 - - -
29/03:30am - - - - - NNW 28 33 15 18 - - -
29/03:00am - - - - - NNW 19 22 10 12 - - -
29/02:30am - - - - - N 17 20 9 11 - - -
29/02:00am - - - - - NNW 11 17 6 9 - - -
29/01:30am - - - - - NNW 15 19 8 10 - - -
29/01:00am - - - - - N 11 15 6 8 - - -
29/12:30am - - - - - N 15 19 8 10 - - -
29/12:00am - - - - - N 11 15 6 8 - - -
 
Date/Time
EST
Temp
°C
App
Temp
°C
Dew
Point
Rel
Hum
%
Delta-T
°C
Wind Press
QNH
hPa
Press
MSL
hPa
Rain
since 9 am
mm
Dir
 
Spd
km/h
Gust
km/h
Spd
kts
Gust
kts
28/11:30pm - - - - - N 19 24 10 13 - - -
28/11:00pm - - - - - N 13 19 7 10 - - -
28/10:30pm - - - - - N 11 13 6 7 - - -
28/10:00pm - - - - - WNW 7 9 4 5 - - -
28/09:30pm - - - - - NW 9 11 5 6 - - -
28/09:00pm - - - - - NW 7 9 4 5 - - -
28/08:30pm - - - - - CALM 0 0 0 0 - - -
28/08:00pm - - - - - WSW 6 9 3 5 - - -
28/07:30pm - - - - - NW 9 13 5 7 - - -
28/07:00pm - - - - - WNW 9 11 5 6 - - -
28/06:30pm - - - - - WNW 13 15 7 8 - - -
28/06:00pm - - - - - WNW 13 17 7 9 - - -
28/05:30pm - - - - - N 9 9 5 5 - - -
28/05:00pm - - - - - N 11 13 6 7 - - -
28/04:30pm - - - - - NNW 11 13 6 7 - - -
28/04:00pm - - - - - NNW 15 19 8 10 - - -
28/03:30pm - - - - - NW 22 28 12 15 - - -
28/03:00pm - - - - - NW 20 26 11 14 - - -
28/02:30pm - - - - - NW 30 35 16 19 - - -
28/02:00pm - - - - - WNW 30 35 16 19 - - -
28/01:36pm - - - - - WNW 28 30 15 16 - - -
28/01:30pm - - - - - NW 9 11 5 6 - - -
28/01:00pm - - - - - WNW 20 26 11 14 - - -
28/12:30pm - - - - - W 24 32 13 17 - - -
28/12:00pm - - - - - W 30 37 16 20 - - -
28/11:30am - - - - - W 30 35 16 19 - - -
28/11:00am - - - - - W 32 41 17 22 - - -
28/10:30am - - - - - WNW 28 32 15 17 - - -
28/10:00am - - - - - WNW 22 26 12 14 - - -
28/09:30am - - - - - WNW 28 32 15 17 - - -
28/09:00am - - - - - W 19 22 10 12 - - -
28/08:30am - - - - - NNW 17 20 9 11 - - -
28/08:00am - - - - - NNW 26 30 14 16 - - -
28/07:30am - - - - - WNW 20 26 11 14 - - -
28/07:00am - - - - - WNW 26 32 14 17 - - -
28/06:30am - - - - - WNW 24 28 13 15 - - -
28/06:00am - - - - - NW 24 28 13 15 - - -
28/05:30am - - - - - NNW 11 15 6 8 - - -
28/05:00am - - - - - NNW 19 28 10 15 - - -
28/04:30am - - - - - NW 24 28 13 15 - - -
28/04:00am - - - - - W 17 22 9 12 - - -
28/03:30am - - - - - W 15 19 8 10 - - -
28/03:00am - - - - - W 15 19 8 10 - - -
28/02:30am - - - - - WNW 13 17 7 9 - - -
28/02:00am - - - - - W 11 13 6 7 - - -
28/01:30am - - - - - W 9 11 5 6 - - -
28/01:00am - - - - - WSW 11 15 6 8 - - -
28/12:30am - - - - - WSW 13 17 7 9 - - -
28/12:00am - - - - - SW 9 13 5 7 - - -
 
Date/Time
EST
Temp
°C
App
Temp
°C
Dew
Point
Rel
Hum
%
Delta-T
°C
Wind Press
QNH
hPa
Press
MSL
hPa
Rain
since 9 am
mm
Dir
 
Spd
km/h
Gust
km/h
Spd
kts
Gust
kts
27/11:30pm - - - - - WNW 13 13 7 7 - - -
27/11:00pm - - - - - W 11 11 6 6 - - -
27/10:30pm - - - - - W 7 9 4 5 - - -
27/10:00pm - - - - - CALM 0 0 0 0 - - -
27/09:30pm - - - - - WSW 7 9 4 5 - - -
27/09:00pm - - - - - SW 9 13 5 7 - - -
27/08:30pm - - - - - SW 13 15 7 8 - - -
27/08:00pm - - - - - WSW 13 15 7 8 - - -
27/07:30pm - - - - - WSW 11 13 6 7 - - -
27/07:00pm - - - - - SSW 4 9 2 5 - - -

Other Formats:

Comma delimited format used in spreadsheet applications
http://www.bom.gov.au/fwo/IDN60801/IDN60801.95756.axf

JavaScript Object Notation format (JSON) in row-major order
http://www.bom.gov.au/fwo/IDN60801/IDN60801.95756.json